KVDI/VDI METAR and TAF weather

Enter ICAO airport designator
Station Type Date Time Source
KVDI METAR 2020/03/31 09:55 UTC NOAA

KVDI 310955Z AUTO 00000KT 10SM BKN060 16/10 A2988 RMK AO2


Station Type Date Time Source
KVDI Decoded METAR 2020/03/31 09:55 UTC NOAA

Vidalia, Vidalia Municipal Airport, GA, United States (KVDI) 32-11-33N 082-22-19W
Mar 31, 2020 - 05:55 AM EDT / 2020.03.31 0955 UTC
Wind: Calm:0
Visibility: 10 mile(s):0
Sky conditions: mostly cloudy
Temperature: 60 F (16 C)
Dew Point: 50 F (10 C)
Relative Humidity: 67%
Pressure (altimeter): 29.88 in. Hg (1011 hPa)
ob: KVDI 310955Z AUTO 00000KT 10SM BKN060 16/10 A2988 RMK AO2
cycle: 10

Station Type Date Time Source
KVDI TAF UTC NOAA

Error!

Example: see airport list